Time;durP1;ratioP1;P1;durP2;ratioP2;P2;SDS_P1;SDS_P2;PMS_P1;PMS_P2;Temp;Humidity;BMP_temperature;BMP_pressure;BME280_temperature;BME280_humidity;BME280_pressure;Samples;Min_cycle;Max_cycle;Signal;HPM_P1;HPM_P2
2021/12/31 00:00:06;;;;;;;12.32;3.95;;;;;;;;;;4993738;28;20037;-66
2021/12/31 00:02:33;;;;;;;18.40;4.00;;;;;;;;;;4993553;28;20044;-66
2021/12/31 00:04:59;;;;;;;14.82;3.97;;;;;;;;;;4993802;28;20093;-66
2021/12/31 00:07:25;;;;;;;18.42;4.38;;;;;;;;;;4993924;28;20406;-66
2021/12/31 00:09:51;;;;;;;10.52;4.05;;;;;;;;;;4993790;28;20026;-66
2021/12/31 00:12:17;;;;;;;14.02;3.80;;;;;;;;;;4993772;28;20033;-66
2021/12/31 00:14:43;;;;;;;10.70;3.42;;;;;;;;;;4993139;28;20037;-66
2021/12/31 00:17:09;;;;;;;12.48;3.90;;;;;;;;;;4993587;28;20042;-66
2021/12/31 00:19:43;;;;;;;17.20;3.60;;;;;;;;;;4992778;28;20031;-66
2021/12/31 00:24:45;;;;;;;10.32;3.70;;;;;;;;;;4993456;28;20031;-66
2021/12/31 00:27:11;;;;;;;8.13;3.88;;;;;;;;;;4993744;28;20038;-66
2021/12/31 00:29:37;;;;;;;20.17;4.03;;;;;;;;;;4993114;28;20534;-66
2021/12/31 00:32:03;;;;;;;18.30;3.72;;;;;;;;;;4993547;28;20026;-66
2021/12/31 00:34:29;;;;;;;12.45;4.28;;;;;;;;;;4992807;28;20030;-66
2021/12/31 00:36:55;;;;;;;11.45;3.40;;;;;;;;;;4993197;28;20026;-66
2021/12/31 00:39:21;;;;;;;10.23;4.15;;;;;;;;;;4993323;28;20022;-66
2021/12/31 00:41:47;;;;;;;14.18;3.55;;;;;;;;;;4993067;28;20027;-66
2021/12/31 00:44:14;;;;;;;14.68;3.88;;;;;;;;;;4992893;28;20042;-66
2021/12/31 00:46:40;;;;;;;14.07;4.10;;;;;;;;;;4993300;28;20027;-66
2021/12/31 00:49:06;;;;;;;14.98;3.92;;;;;;;;;;4993060;28;20370;-66
2021/12/31 00:51:33;;;;;;;14.00;4.07;;;;;;;;;;4993146;28;20022;-66
2021/12/31 00:53:59;;;;;;;13.15;4.45;;;;;;;;;;4993325;28;20450;-66
2021/12/31 00:56:25;;;;;;;20.77;3.88;;;;;;;;;;4993226;28;20042;-66
2021/12/31 00:58:51;;;;;;;13.45;4.32;;;;;;;;;;4992522;28;20033;-66
2021/12/31 01:01:20;;;;;;;15.80;4.22;;;;;;;;;;4993330;28;20091;-66
2021/12/31 01:03:46;;;;;;;10.02;4.20;;;;;;;;;;4992830;28;20050;-66
2021/12/31 01:06:13;;;;;;;15.75;4.30;;;;;;;;;;4993337;28;20026;-66
2021/12/31 01:08:39;;;;;;;14.77;4.18;;;;;;;;;;4992766;28;20092;-66
2021/12/31 01:11:05;;;;;;;12.82;3.97;;;;;;;;;;4993158;28;20030;-66
2021/12/31 01:13:37;;;;;;;10.43;3.88;;;;;;;;;;4992518;28;20181;-66
2021/12/31 01:16:05;;;;;;;8.00;3.88;;;;;;;;;;4993079;28;20066;-66
2021/12/31 01:21:16;;;;;;;12.13;3.97;;;;;;;;;;4993095;28;20057;-66
2021/12/31 01:23:42;;;;;;;9.45;4.03;;;;;;;;;;4992651;28;20030;-66
2021/12/31 01:26:08;;;;;;;13.38;4.28;;;;;;;;;;4993137;28;20486;-66
2021/12/31 01:28:36;;;;;;;7.30;3.25;;;;;;;;;;4992209;28;20541;-66
2021/12/31 01:31:02;;;;;;;18.85;4.07;;;;;;;;;;4993599;28;20042;-66
2021/12/31 01:33:28;;;;;;;9.38;4.10;;;;;;;;;;4996751;28;20034;-66
2021/12/31 01:35:54;;;;;;;15.38;4.15;;;;;;;;;;4996341;28;20022;-66
2021/12/31 01:38:21;;;;;;;10.40;4.35;;;;;;;;;;4996115;28;20511;-66
2021/12/31 01:40:47;;;;;;;14.98;3.78;;;;;;;;;;4996436;28;20121;-66
2021/12/31 01:43:13;;;;;;;13.57;4.68;;;;;;;;;;4996072;28;20549;-66
2021/12/31 01:45:55;;;;;;;15.75;4.28;;;;;;;;;;4978820;28;20038;-66
2021/12/31 01:48:24;;;;;;;9.75;4.35;;;;;;;;;;4996075;28;20066;-66
2021/12/31 01:50:51;;;;;;;9.98;3.78;;;;;;;;;;4996224;28;20045;-66
2021/12/31 01:53:18;;;;;;;14.07;4.00;;;;;;;;;;4996354;28;20033;-66
2021/12/31 01:55:44;;;;;;;14.40;3.83;;;;;;;;;;4996124;28;20355;-66
2021/12/31 01:58:10;;;;;;;9.68;3.65;;;;;;;;;;4995724;28;20033;-66
2021/12/31 02:00:37;;;;;;;8.20;3.63;;;;;;;;;;4978714;28;20069;-66
2021/12/31 02:03:05;;;;;;;14.45;3.70;;;;;;;;;;4978439;28;20030;-66
2021/12/31 02:05:31;;;;;;;10.10;3.95;;;;;;;;;;4995978;28;20026;-66
2021/12/31 02:07:58;;;;;;;12.00;4.05;;;;;;;;;;4996099;28;20031;-66
2021/12/31 02:10:24;;;;;;;7.80;3.67;;;;;;;;;;4995321;28;20034;-66
2021/12/31 02:12:50;;;;;;;10.77;3.83;;;;;;;;;;4995761;28;20469;-66
2021/12/31 02:15:18;;;;;;;8.45;3.72;;;;;;;;;;4995881;28;20036;-66
2021/12/31 02:17:47;;;;;;;11.18;3.92;;;;;;;;;;4995299;28;20029;-66
2021/12/31 02:20:14;;;;;;;11.90;3.50;;;;;;;;;;4996062;28;20034;-66
2021/12/31 02:22:45;;;;;;;14.35;4.15;;;;;;;;;;4995628;28;20057;-66
2021/12/31 02:25:11;;;;;;;11.15;3.75;;;;;;;;;;4995127;28;20045;-66
2021/12/31 02:27:38;;;;;;;13.82;3.88;;;;;;;;;;4995632;28;20360;-66
2021/12/31 02:30:05;;;;;;;12.00;4.38;;;;;;;;;;4995637;28;20490;-66
2021/12/31 02:32:32;;;;;;;15.48;3.85;;;;;;;;;;4995609;28;20482;-66
2021/12/31 02:34:58;;;;;;;13.95;4.22;;;;;;;;;;4995251;28;20148;-66
2021/12/31 02:37:24;;;;;;;12.13;4.60;;;;;;;;;;4995327;28;20564;-66
2021/12/31 02:39:50;;;;;;;11.43;4.00;;;;;;;;;;4977380;28;20553;-66
2021/12/31 02:42:16;;;;;;;9.98;3.58;;;;;;;;;;4995140;28;20038;-66
2021/12/31 02:44:43;;;;;;;13.93;4.38;;;;;;;;;;4994866;28;20042;-66
2021/12/31 02:47:09;;;;;;;11.88;4.28;;;;;;;;;;4995391;28;20089;-66
2021/12/31 02:49:39;;;;;;;17.00;4.30;;;;;;;;;;4995346;28;20057;-66
2021/12/31 02:52:07;;;;;;;11.05;4.03;;;;;;;;;;4995185;28;20034;-66
2021/12/31 02:54:36;;;;;;;14.90;5.75;;;;;;;;;;4995002;28;20034;-66
2021/12/31 02:57:02;;;;;;;12.07;4.38;;;;;;;;;;4994740;28;20031;-66
2021/12/31 02:59:28;;;;;;;14.35;3.72;;;;;;;;;;4995443;28;20033;-66
2021/12/31 03:01:55;;;;;;;12.50;3.53;;;;;;;;;;4994717;28;20031;-66
2021/12/31 03:04:24;;;;;;;8.38;4.00;;;;;;;;;;4994976;28;20022;-66
2021/12/31 03:06:51;;;;;;;11.40;4.50;;;;;;;;;;4994941;28;20038;-66
2021/12/31 03:09:21;;;;;;;13.35;4.90;;;;;;;;;;4994677;28;20022;-66
2021/12/31 03:11:47;;;;;;;9.55;3.65;;;;;;;;;;4994582;28;20038;-66
2021/12/31 03:14:14;;;;;;;7.15;3.13;;;;;;;;;;4994877;28;20513;-66
2021/12/31 03:16:40;;;;;;;12.70;4.25;;;;;;;;;;4994507;28;20364;-66
2021/12/31 03:19:07;;;;;;;9.27;4.35;;;;;;;;;;4994578;28;20053;-66
2021/12/31 03:21:33;;;;;;;7.53;3.17;;;;;;;;;;4994786;28;20121;-66
2021/12/31 03:24:00;;;;;;;10.18;3.58;;;;;;;;;;4994090;28;20021;-66
2021/12/31 03:26:26;;;;;;;9.10;3.85;;;;;;;;;;4975106;28;20031;-66
2021/12/31 03:28:52;;;;;;;9.65;3.40;;;;;;;;;;4974828;28;20094;-66
2021/12/31 03:31:19;;;;;;;8.80;3.55;;;;;;;;;;4975235;28;20399;-66
2021/12/31 03:33:45;;;;;;;6.45;3.72;;;;;;;;;;4974841;28;20390;-66
2021/12/31 03:36:11;;;;;;;7.45;3.33;;;;;;;;;;4992805;28;20525;-66
2021/12/31 03:38:37;;;;;;;9.52;2.90;;;;;;;;;;4993849;28;20054;-66
2021/12/31 03:41:03;;;;;;;6.13;3.10;;;;;;;;;;4994172;28;20022;-66
2021/12/31 03:43:29;;;;;;;9.40;3.17;;;;;;;;;;4994258;28;20452;-66
2021/12/31 03:45:55;;;;;;;7.68;3.17;;;;;;;;;;4993873;28;20026;-66
2021/12/31 03:48:22;;;;;;;8.45;3.88;;;;;;;;;;4994154;28;20034;-66
2021/12/31 03:50:48;;;;;;;9.88;3.00;;;;;;;;;;4994113;28;20018;-66
2021/12/31 03:53:15;;;;;;;8.82;2.67;;;;;;;;;;4993723;28;20038;-66
2021/12/31 03:55:42;;;;;;;7.00;3.10;;;;;;;;;;4993261;28;20056;-66
2021/12/31 03:58:08;;;;;;;6.78;2.92;;;;;;;;;;4994158;28;20126;-66
2021/12/31 04:00:34;;;;;;;6.20;2.95;;;;;;;;;;4994239;28;20030;-66
2021/12/31 04:03:07;;;;;;;6.60;2.40;;;;;;;;;;4993619;28;20467;-66
2021/12/31 04:05:34;;;;;;;7.28;2.50;;;;;;;;;;4993595;28;20052;-66
2021/12/31 04:08:00;;;;;;;10.68;2.90;;;;;;;;;;4993214;28;20026;-66
2021/12/31 04:10:26;;;;;;;8.90;3.78;;;;;;;;;;4976040;28;20423;-66
2021/12/31 04:12:52;;;;;;;7.82;3.08;;;;;;;;;;4993342;28;20038;-66
2021/12/31 04:15:18;;;;;;;10.45;3.40;;;;;;;;;;4993725;28;20034;-66
2021/12/31 04:17:44;;;;;;;6.05;2.50;;;;;;;;;;4993612;28;20034;-66
2021/12/31 04:20:18;;;;;;;7.60;3.05;;;;;;;;;;4993793;28;20030;-66
2021/12/31 04:22:52;;;;;;;7.15;2.70;;;;;;;;;;4993266;28;20038;-66
2021/12/31 04:25:18;;;;;;;5.65;2.70;;;;;;;;;;4993452;28;20042;-66
2021/12/31 04:27:44;;;;;;;8.30;2.75;;;;;;;;;;4993344;28;20023;-66
2021/12/31 04:30:10;;;;;;;7.13;3.17;;;;;;;;;;4993737;28;20064;-66
2021/12/31 04:32:36;;;;;;;11.95;3.35;;;;;;;;;;4993618;28;20026;-66
2021/12/31 04:35:03;;;;;;;9.98;3.10;;;;;;;;;;4993248;28;20062;-66
2021/12/31 04:37:29;;;;;;;9.43;2.55;;;;;;;;;;4993116;28;20379;-66
2021/12/31 04:39:55;;;;;;;6.15;2.95;;;;;;;;;;4993000;28;20121;-66
2021/12/31 04:42:21;;;;;;;10.40;3.08;;;;;;;;;;4993215;28;20034;-66
2021/12/31 04:44:47;;;;;;;11.52;3.45;;;;;;;;;;4993335;28;20026;-66
2021/12/31 04:47:13;;;;;;;12.88;3.17;;;;;;;;;;4992580;28;20022;-66
2021/12/31 04:49:39;;;;;;;12.95;4.82;;;;;;;;;;5012003;28;20029;-66
2021/12/31 04:52:05;;;;;;;12.10;3.28;;;;;;;;;;5011569;28;20025;-66
2021/12/31 04:54:31;;;;;;;10.60;3.50;;;;;;;;;;5012887;28;20026;-66
2021/12/31 04:56:58;;;;;;;11.57;3.38;;;;;;;;;;5002527;28;20050;-66
2021/12/31 04:59:25;;;;;;;13.80;3.42;;;;;;;;;;4993252;28;20145;-66
2021/12/31 05:01:51;;;;;;;11.13;3.00;;;;;;;;;;4993075;28;20498;-66
2021/12/31 05:04:17;;;;;;;15.18;3.10;;;;;;;;;;4993039;28;20037;-66
2021/12/31 05:06:44;;;;;;;16.98;3.08;;;;;;;;;;4996417;28;20109;-66
2021/12/31 05:09:10;;;;;;;16.42;4.60;;;;;;;;;;4997190;28;20106;-66
2021/12/31 05:11:36;;;;;;;16.85;4.00;;;;;;;;;;4996939;28;20026;-66
2021/12/31 05:14:04;;;;;;;11.18;3.97;;;;;;;;;;4996814;28;20121;-66
2021/12/31 05:16:30;;;;;;;8.50;3.28;;;;;;;;;;4997072;28;20030;-66
2021/12/31 05:18:57;;;;;;;13.48;3.83;;;;;;;;;;4996528;28;20038;-66
2021/12/31 05:21:23;;;;;;;11.35;3.75;;;;;;;;;;4996750;28;20042;-66
2021/12/31 05:23:49;;;;;;;16.23;3.75;;;;;;;;;;4996561;28;20490;-66
2021/12/31 05:26:15;;;;;;;18.15;3.78;;;;;;;;;;4985359;28;20026;-64
2021/12/31 05:28:41;;;;;;;18.58;4.50;;;;;;;;;;4990764;28;20026;-67
2021/12/31 05:31:08;;;;;;;13.07;3.88;;;;;;;;;;4982870;28;20428;-65
2021/12/31 05:33:35;;;;;;;13.48;4.40;;;;;;;;;;4979811;28;20034;-67
2021/12/31 05:36:01;;;;;;;15.35;3.92;;;;;;;;;;4984614;28;20035;-66
2021/12/31 05:38:27;;;;;;;19.35;4.70;;;;;;;;;;4978427;28;20418;-67
2021/12/31 05:40:53;;;;;;;13.60;4.60;;;;;;;;;;4978308;28;20491;-67
2021/12/31 05:43:19;;;;;;;15.48;4.30;;;;;;;;;;4978983;28;20035;-68
2021/12/31 05:45:45;;;;;;;14.18;4.22;;;;;;;;;;4979722;28;20045;-64
2021/12/31 05:48:11;;;;;;;23.40;4.20;;;;;;;;;;4994392;28;20038;-64
2021/12/31 05:50:37;;;;;;;17.45;4.55;;;;;;;;;;4995011;28;20019;-64
2021/12/31 05:53:03;;;;;;;21.83;6.78;;;;;;;;;;4991876;28;20121;-64
2021/12/31 05:55:29;;;;;;;18.55;5.13;;;;;;;;;;4993379;28;20026;-64
2021/12/31 05:57:56;;;;;;;23.17;4.60;;;;;;;;;;4978326;28;20030;-64
2021/12/31 06:00:23;;;;;;;18.70;4.72;;;;;;;;;;4977802;28;20089;-64
2021/12/31 06:02:49;;;;;;;15.73;4.85;;;;;;;;;;4994038;28;20116;-64
2021/12/31 06:05:15;;;;;;;19.88;4.78;;;;;;;;;;4987333;28;20033;-64
2021/12/31 06:07:41;;;;;;;20.30;4.90;;;;;;;;;;4988814;28;20022;-66
2021/12/31 06:10:08;;;;;;;17.52;4.90;;;;;;;;;;4994507;28;20506;-65
2021/12/31 06:12:35;;;;;;;15.35;4.22;;;;;;;;;;4995477;28;20116;-65
2021/12/31 06:15:04;;;;;;;19.80;5.45;;;;;;;;;;4993737;28;20100;-65
2021/12/31 06:17:30;;;;;;;20.13;4.55;;;;;;;;;;4993589;28;20081;-65
2021/12/31 06:19:56;;;;;;;22.90;4.70;;;;;;;;;;4994138;28;20031;-66
2021/12/31 06:22:23;;;;;;;18.30;5.40;;;;;;;;;;4994164;28;20113;-65
2021/12/31 06:24:49;;;;;;;20.48;4.80;;;;;;;;;;4994361;28;20019;-65
2021/12/31 06:27:15;;;;;;;26.73;5.25;;;;;;;;;;4994750;28;20097;-65
2021/12/31 06:29:41;;;;;;;21.10;4.43;;;;;;;;;;4994097;28;20109;-65
2021/12/31 06:32:07;;;;;;;22.30;4.85;;;;;;;;;;4993968;28;20026;-65
2021/12/31 06:34:34;;;;;;;20.38;4.60;;;;;;;;;;4993890;28;20030;-65
2021/12/31 06:37:00;;;;;;;19.25;6.22;;;;;;;;;;4992507;28;20038;-66
2021/12/31 06:39:27;;;;;;;16.15;5.65;;;;;;;;;;4994081;28;20486;-65
2021/12/31 06:41:53;;;;;;;22.98;5.45;;;;;;;;;;4993913;28;20113;-66
2021/12/31 06:44:19;;;;;;;17.27;5.32;;;;;;;;;;4993312;28;20453;-65
2021/12/31 06:46:45;;;;;;;19.20;4.70;;;;;;;;;;4991319;28;20037;-66
2021/12/31 06:49:11;;;;;;;15.13;5.18;;;;;;;;;;4993303;28;20180;-66
2021/12/31 06:51:38;;;;;;;26.88;5.00;;;;;;;;;;4992499;28;20027;-65
2021/12/31 06:54:04;;;;;;;18.98;5.10;;;;;;;;;;4994241;28;20065;-66
2021/12/31 06:56:30;;;;;;;13.35;3.90;;;;;;;;;;4993799;28;20379;-65
2021/12/31 06:58:56;;;;;;;18.05;4.43;;;;;;;;;;4995357;28;20034;-65
2021/12/31 07:01:24;;;;;;;15.20;4.50;;;;;;;;;;4990136;28;20100;-66
2021/12/31 07:03:50;;;;;;;12.55;4.10;;;;;;;;;;4991670;28;20034;-65
2021/12/31 07:06:16;;;;;;;12.73;3.88;;;;;;;;;;4991741;28;20026;-65
2021/12/31 07:08:42;;;;;;;12.85;3.75;;;;;;;;;;4991725;28;20057;-66
2021/12/31 07:11:08;;;;;;;12.93;3.95;;;;;;;;;;4992736;28;20061;-65
2021/12/31 07:13:35;;;;;;;16.52;3.88;;;;;;;;;;4994422;28;20092;-66
2021/12/31 07:16:02;;;;;;;9.38;3.10;;;;;;;;;;4993211;28;20125;-66
2021/12/31 07:18:28;;;;;;;13.68;3.30;;;;;;;;;;4992276;28;20030;-66
2021/12/31 07:20:54;;;;;;;11.48;3.40;;;;;;;;;;4992338;28;20379;-65
2021/12/31 07:23:20;;;;;;;11.85;3.47;;;;;;;;;;4992688;28;20138;-66
2021/12/31 07:25:47;;;;;;;12.00;3.63;;;;;;;;;;4993694;28;20130;-66
2021/12/31 07:28:14;;;;;;;12.10;3.35;;;;;;;;;;4990580;28;20018;-66
2021/12/31 07:30:40;;;;;;;7.90;3.75;;;;;;;;;;4992985;28;20022;-66
2021/12/31 07:33:06;;;;;;;9.25;3.08;;;;;;;;;;4991600;28;20084;-66
2021/12/31 07:35:33;;;;;;;10.55;3.28;;;;;;;;;;4990873;28;20042;-66
2021/12/31 07:38:00;;;;;;;13.10;3.70;;;;;;;;;;4993353;28;20031;-66
2021/12/31 07:40:41;;;;;;;8.88;2.97;;;;;;;;;;4981847;28;20417;-66
2021/12/31 07:43:08;;;;;;;11.18;3.50;;;;;;;;;;4987115;28;20030;-66
2021/12/31 07:45:34;;;;;;;10.85;3.92;;;;;;;;;;4987083;28;20105;-66
2021/12/31 07:48:01;;;;;;;9.82;3.30;;;;;;;;;;4986609;28;20043;-66
2021/12/31 07:50:27;;;;;;;13.38;3.88;;;;;;;;;;4989423;28;20029;-66
2021/12/31 07:52:53;;;;;;;10.15;3.60;;;;;;;;;;4989667;28;20121;-66
2021/12/31 07:55:19;;;;;;;12.65;3.97;;;;;;;;;;4985440;28;20467;-66
2021/12/31 07:57:45;;;;;;;11.15;3.92;;;;;;;;;;4989648;28;20026;-66
2021/12/31 08:00:12;;;;;;;13.90;4.00;;;;;;;;;;4989490;28;20395;-66
2021/12/31 08:02:38;;;;;;;15.95;4.78;;;;;;;;;;4989056;28;20367;-66
2021/12/31 08:05:05;;;;;;;16.63;5.10;;;;;;;;;;4991465;28;20061;-66
2021/12/31 08:07:31;;;;;;;18.13;4.63;;;;;;;;;;4986264;28;20042;-66
2021/12/31 08:09:57;;;;;;;18.85;5.47;;;;;;;;;;4986032;28;20077;-66
2021/12/31 08:12:23;;;;;;;25.83;6.25;;;;;;;;;;4986575;28;20046;-66
2021/12/31 08:14:50;;;;;;;30.35;6.63;;;;;;;;;;4986018;28;20041;-66
2021/12/31 08:17:16;;;;;;;25.90;7.15;;;;;;;;;;4985544;28;20034;-66
2021/12/31 08:19:43;;;;;;;25.00;7.03;;;;;;;;;;4987484;28;20019;-66
2021/12/31 08:22:09;;;;;;;20.88;6.43;;;;;;;;;;4989254;28;20461;-66
2021/12/31 08:24:35;;;;;;;24.40;5.97;;;;;;;;;;4991449;28;20038;-66
2021/12/31 08:27:01;;;;;;;27.05;7.03;;;;;;;;;;4983573;28;20113;-66
2021/12/31 08:29:27;;;;;;;33.25;8.15;;;;;;;;;;4986512;28;20409;-66
2021/12/31 08:31:53;;;;;;;23.02;6.38;;;;;;;;;;4991188;28;20029;-66
2021/12/31 08:34:19;;;;;;;28.15;7.50;;;;;;;;;;4991304;28;20410;-66
2021/12/31 08:36:46;;;;;;;29.55;6.80;;;;;;;;;;4988375;28;20109;-66
2021/12/31 08:39:12;;;;;;;34.30;7.82;;;;;;;;;;4990254;28;20054;-66
2021/12/31 08:41:39;;;;;;;26.30;7.70;;;;;;;;;;4988916;28;20379;-66
2021/12/31 08:44:05;;;;;;;36.10;7.60;;;;;;;;;;4991969;28;20038;-66
2021/12/31 08:46:32;;;;;;;38.33;8.55;;;;;;;;;;4991400;28;20529;-66
2021/12/31 08:48:58;;;;;;;40.17;9.40;;;;;;;;;;4993496;28;20508;-66
2021/12/31 08:51:24;;;;;;;48.65;8.55;;;;;;;;;;4990320;28;20109;-66
2021/12/31 08:53:51;;;;;;;34.60;7.95;;;;;;;;;;4986540;28;20117;-66
2021/12/31 08:56:17;;;;;;;35.53;7.97;;;;;;;;;;4993144;28;20041;-66
2021/12/31 08:58:43;;;;;;;47.55;8.70;;;;;;;;;;4992890;28;20081;-66
2021/12/31 09:01:09;;;;;;;32.55;7.13;;;;;;;;;;4992164;28;20121;-66
2021/12/31 09:03:35;;;;;;;43.20;8.60;;;;;;;;;;4991095;28;20445;-66
2021/12/31 09:06:01;;;;;;;29.00;7.05;;;;;;;;;;4991991;28;20022;-66
2021/12/31 09:08:27;;;;;;;40.60;8.13;;;;;;;;;;5003993;28;20137;-66
2021/12/31 09:10:54;;;;;;;43.30;8.70;;;;;;;;;;4988305;28;20026;-66
2021/12/31 09:13:20;;;;;;;46.70;9.05;;;;;;;;;;4991616;28;20372;-66
2021/12/31 09:15:47;;;;;;;35.30;8.90;;;;;;;;;;4992535;28;20034;-66
2021/12/31 09:18:13;;;;;;;47.50;9.02;;;;;;;;;;4967914;28;20027;-66
2021/12/31 09:20:40;;;;;;;32.85;7.68;;;;;;;;;;4989356;28;20062;-66
2021/12/31 09:23:06;;;;;;;38.13;7.78;;;;;;;;;;4989461;28;20026;-66
2021/12/31 09:25:32;;;;;;;33.42;7.55;;;;;;;;;;4990984;28;20037;-66
2021/12/31 09:27:58;;;;;;;33.22;7.97;;;;;;;;;;4980447;28;20549;-66
2021/12/31 09:30:25;;;;;;;31.67;7.50;;;;;;;;;;4982156;28;20053;-66
2021/12/31 09:32:51;;;;;;;34.20;9.23;;;;;;;;;;4988265;28;20027;-66
2021/12/31 09:35:17;;;;;;;30.73;8.15;;;;;;;;;;4996036;28;20084;-66
2021/12/31 09:37:43;;;;;;;41.33;8.63;;;;;;;;;;4999562;28;20038;-66
2021/12/31 09:40:11;;;;;;;27.85;7.07;;;;;;;;;;4990878;28;20022;-66
2021/12/31 09:42:38;;;;;;;32.08;7.80;;;;;;;;;;4991933;28;20161;-66
2021/12/31 09:45:05;;;;;;;27.55;7.43;;;;;;;;;;4988212;28;20041;-66
2021/12/31 09:47:31;;;;;;;29.35;7.30;;;;;;;;;;4992760;28;20408;-66
2021/12/31 09:49:57;;;;;;;40.63;9.73;;;;;;;;;;4996483;28;20195;-66
2021/12/31 09:52:23;;;;;;;36.95;7.20;;;;;;;;;;4989438;28;20041;-66
2021/12/31 09:54:50;;;;;;;27.33;7.30;;;;;;;;;;4993991;28;20025;-66
2021/12/31 09:57:17;;;;;;;31.63;7.18;;;;;;;;;;4992299;28;20034;-67
2021/12/31 09:59:43;;;;;;;26.98;6.57;;;;;;;;;;4994836;28;20105;-66
2021/12/31 10:02:10;;;;;;;24.77;6.22;;;;;;;;;;4986723;28;20104;-66
2021/12/31 10:04:54;;;;;;;20.17;6.60;;;;;;;;;;4990519;28;20054;-67
2021/12/31 10:07:23;;;;;;;33.40;6.25;;;;;;;;;;4993541;28;20054;-67
2021/12/31 10:10:04;;;;;;;26.65;7.05;;;;;;;;;;5009465;28;20120;-67
2021/12/31 10:12:50;;;;;;;27.02;5.90;;;;;;;;;;5003006;28;20030;-67
2021/12/31 10:15:18;;;;;;;19.85;6.18;;;;;;;;;;5002452;28;20037;-67
2021/12/31 10:17:45;;;;;;;20.42;6.63;;;;;;;;;;5004466;28;20068;-67
2021/12/31 10:20:11;;;;;;;28.73;5.93;;;;;;;;;;5001274;28;20030;-67
2021/12/31 10:22:37;;;;;;;19.02;5.57;;;;;;;;;;5006738;28;20037;-67
2021/12/31 10:25:15;;;;;;;23.50;6.45;;;;;;;;;;4997578;28;20076;-67
2021/12/31 10:27:41;;;;;;;24.52;6.00;;;;;;;;;;4988274;28;20376;-67
2021/12/31 10:30:08;;;;;;;18.90;5.35;;;;;;;;;;5001108;28;20029;-67
2021/12/31 10:32:40;;;;;;;22.70;7.13;;;;;;;;;;5005713;28;20025;-67
2021/12/31 10:35:22;;;;;;;25.65;6.82;;;;;;;;;;4998584;28;20033;-67
2021/12/31 10:38:01;;;;;;;31.10;6.22;;;;;;;;;;5000222;28;20077;-67
2021/12/31 10:40:39;;;;;;;27.38;6.03;;;;;;;;;;4998380;28;20180;-67
2021/12/31 10:43:10;;;;;;;20.05;5.03;;;;;;;;;;4999579;28;20038;-67
2021/12/31 10:45:36;;;;;;;26.08;6.60;;;;;;;;;;5002789;28;20482;-67
2021/12/31 10:48:06;;;;;;;30.85;6.50;;;;;;;;;;4995379;28;20441;-67
2021/12/31 10:50:33;;;;;;;24.98;7.15;;;;;;;;;;5004035;28;20180;-67
2021/12/31 10:53:02;;;;;;;25.23;7.53;;;;;;;;;;5000003;28;20022;-67
2021/12/31 10:55:30;;;;;;;19.58;6.13;;;;;;;;;;5002977;28;20479;-67
2021/12/31 10:57:59;;;;;;;27.83;6.20;;;;;;;;;;4998261;28;20356;-67
2021/12/31 11:00:27;;;;;;;20.90;6.35;;;;;;;;;;4977841;28;20410;-67
2021/12/31 11:02:53;;;;;;;19.40;6.20;;;;;;;;;;5005409;28;20025;-67
2021/12/31 11:05:21;;;;;;;31.70;6.93;;;;;;;;;;4996709;28;20014;-67
2021/12/31 11:07:48;;;;;;;25.88;6.95;;;;;;;;;;5003222;28;20022;-67
2021/12/31 11:10:15;;;;;;;18.98;6.07;;;;;;;;;;5004388;28;20113;-67
2021/12/31 11:12:46;;;;;;;25.98;7.93;;;;;;;;;;5000549;28;20026;-67
2021/12/31 11:15:12;;;;;;;24.20;6.28;;;;;;;;;;4994410;28;20030;-67
2021/12/31 11:17:38;;;;;;;28.27;7.88;;;;;;;;;;4992810;28;20517;-67
2021/12/31 11:20:05;;;;;;;24.23;6.05;;;;;;;;;;5004508;28;20489;-67
2021/12/31 11:22:31;;;;;;;25.92;6.60;;;;;;;;;;4999369;28;20041;-67
2021/12/31 11:25:16;;;;;;;24.90;6.90;;;;;;;;;;5006568;28;20041;-67
2021/12/31 11:27:45;;;;;;;25.70;6.85;;;;;;;;;;4999587;28;20057;-67
2021/12/31 11:30:29;;;;;;;24.08;6.38;;;;;;;;;;5000244;28;20030;-67
2021/12/31 11:32:57;;;;;;;25.63;6.97;;;;;;;;;;5004568;28;20026;-67
2021/12/31 11:35:32;;;;;;;24.88;6.70;;;;;;;;;;4999224;28;20030;-67
2021/12/31 11:37:58;;;;;;;25.63;6.75;;;;;;;;;;4993706;28;20122;-67
2021/12/31 11:40:28;;;;;;;26.17;6.75;;;;;;;;;;5002718;28;20441;-67
2021/12/31 11:43:13;;;;;;;26.05;6.47;;;;;;;;;;5001280;28;20027;-67
2021/12/31 11:45:39;;;;;;;28.50;6.80;;;;;;;;;;4994764;28;20022;-67
2021/12/31 11:48:24;;;;;;;24.50;6.97;;;;;;;;;;5004852;28;20402;-67
2021/12/31 11:51:03;;;;;;;20.52;6.40;;;;;;;;;;4995778;28;20033;-67
2021/12/31 11:53:30;;;;;;;24.15;8.07;;;;;;;;;;4990515;28;20410;-67
2021/12/31 11:55:56;;;;;;;26.55;7.55;;;;;;;;;;4999111;28;20022;-67
2021/12/31 11:58:41;;;;;;;24.92;6.05;;;;;;;;;;4998954;28;20040;-67
2021/12/31 12:01:26;;;;;;;30.50;7.00;;;;;;;;;;4995087;28;20109;-67
2021/12/31 12:04:12;;;;;;;27.65;6.75;;;;;;;;;;4992344;28;20037;-67
2021/12/31 12:06:57;;;;;;;32.05;7.72;;;;;;;;;;5005461;28;20022;-67
2021/12/31 12:09:38;;;;;;;29.75;7.13;;;;;;;;;;4999870;28;20026;-67
2021/12/31 12:12:08;;;;;;;25.45;6.18;;;;;;;;;;4999129;28;20018;-67
2021/12/31 12:14:41;;;;;;;31.02;7.45;;;;;;;;;;5003185;28;20081;-67
2021/12/31 12:17:08;;;;;;;29.17;7.43;;;;;;;;;;5001506;28;20032;-67
2021/12/31 12:19:49;;;;;;;36.22;8.43;;;;;;;;;;4998397;28;20026;-67
2021/12/31 12:22:34;;;;;;;26.20;7.30;;;;;;;;;;5009975;28;20033;-67
2021/12/31 12:25:06;;;;;;;26.52;7.25;;;;;;;;;;4998392;28;20105;-67
2021/12/31 12:27:32;;;;;;;26.30;6.47;;;;;;;;;;4995043;28;20030;-67
2021/12/31 12:30:00;;;;;;;29.70;7.28;;;;;;;;;;4992401;28;20022;-67
2021/12/31 12:32:40;;;;;;;23.02;6.65;;;;;;;;;;4991331;28;20030;-67
2021/12/31 12:35:16;;;;;;;25.40;7.20;;;;;;;;;;4990772;28;20438;-67
2021/12/31 12:37:42;;;;;;;24.00;6.10;;;;;;;;;;4991483;28;20038;-67
2021/12/31 12:40:09;;;;;;;25.15;7.65;;;;;;;;;;4990945;28;20327;-67
2021/12/31 12:42:35;;;;;;;32.83;6.95;;;;;;;;;;4993537;28;20125;-67
2021/12/31 12:45:01;;;;;;;27.48;6.85;;;;;;;;;;4997159;28;20076;-67
2021/12/31 12:47:27;;;;;;;23.75;6.60;;;;;;;;;;4998808;28;20013;-67
2021/12/31 12:49:57;;;;;;;31.15;6.13;;;;;;;;;;4996392;28;20418;-68
2021/12/31 12:52:23;;;;;;;22.17;6.70;;;;;;;;;;5000661;28;20108;-67
2021/12/31 12:54:49;;;;;;;22.48;6.57;;;;;;;;;;4996387;28;20026;-67
2021/12/31 12:57:25;;;;;;;23.25;6.30;;;;;;;;;;4991367;28;20038;-67
2021/12/31 12:59:52;;;;;;;25.52;6.05;;;;;;;;;;4989844;28;20457;-67
2021/12/31 13:02:37;;;;;;;26.40;6.25;;;;;;;;;;4996598;28;20502;-67
2021/12/31 13:05:04;;;;;;;20.83;6.03;;;;;;;;;;4989150;28;20054;-67
2021/12/31 13:07:30;;;;;;;24.73;6.43;;;;;;;;;;4991588;28;20037;-67
2021/12/31 13:10:03;;;;;;;26.13;6.47;;;;;;;;;;4996852;28;20401;-67
2021/12/31 13:12:30;;;;;;;21.60;6.50;;;;;;;;;;4999735;28;20037;-67
2021/12/31 13:14:58;;;;;;;27.92;6.80;;;;;;;;;;4992163;28;20018;-67
2021/12/31 13:17:27;;;;;;;25.52;6.85;;;;;;;;;;5000931;28;20022;-68
2021/12/31 13:20:03;;;;;;;23.10;7.50;;;;;;;;;;5009289;28;20041;-67
2021/12/31 13:22:37;;;;;;;20.67;6.57;;;;;;;;;;4995284;28;20023;-67
2021/12/31 13:25:03;;;;;;;20.00;6.45;;;;;;;;;;4995636;28;20454;-67
2021/12/31 13:27:31;;;;;;;29.15;7.25;;;;;;;;;;4992902;28;20085;-67
2021/12/31 13:30:12;;;;;;;22.00;7.10;;;;;;;;;;4996472;28;20049;-67
2021/12/31 13:32:47;;;;;;;30.58;6.30;;;;;;;;;;4997392;28;20026;-67
2021/12/31 13:35:13;;;;;;;21.50;5.55;;;;;;;;;;4992231;28;20030;-67
2021/12/31 13:37:40;;;;;;;23.48;6.55;;;;;;;;;;4994705;28;20041;-67
2021/12/31 13:40:14;;;;;;;27.00;7.47;;;;;;;;;;4999525;28;20026;-67
2021/12/31 13:42:44;;;;;;;22.65;6.03;;;;;;;;;;4994355;28;20050;-68
2021/12/31 13:45:23;;;;;;;27.02;6.32;;;;;;;;;;4993990;28;20419;-68
2021/12/31 13:47:50;;;;;;;29.92;6.78;;;;;;;;;;4994157;28;20097;-67
2021/12/31 13:50:18;;;;;;;23.65;5.95;;;;;;;;;;4991021;28;20026;-67
2021/12/31 13:52:45;;;;;;;32.80;6.43;;;;;;;;;;4991734;28;20053;-68
2021/12/31 13:55:26;;;;;;;23.98;6.05;;;;;;;;;;4989698;28;20407;-68
2021/12/31 13:58:10;;;;;;;28.85;6.15;;;;;;;;;;4992251;28;20041;-68
2021/12/31 14:00:37;;;;;;;25.70;6.35;;;;;;;;;;4989200;28;20121;-68
2021/12/31 14:03:29;;;;;;;31.52;6.82;;;;;;;;;;4991397;28;20041;-68
2021/12/31 14:05:58;;;;;;;23.88;7.00;;;;;;;;;;4983152;28;20029;-68
2021/12/31 14:10:56;;;;;;;16.50;5.32;;;;;;;;;;4996727;28;20582;-68
2021/12/31 14:13:22;;;;;;;18.55;6.05;;;;;;;;;;4994704;28;20038;-68
2021/12/31 14:15:48;;;;;;;20.98;6.05;;;;;;;;;;4993372;28;20050;-68
2021/12/31 14:18:14;;;;;;;30.90;9.57;;;;;;;;;;4990371;28;20077;-68
2021/12/31 14:20:42;;;;;;;26.92;6.78;;;;;;;;;;4995698;28;20018;-68
2021/12/31 14:23:08;;;;;;;23.85;7.70;;;;;;;;;;5001800;28;20034;-68
2021/12/31 14:25:36;;;;;;;34.85;7.85;;;;;;;;;;5004493;28;20165;-68
2021/12/31 14:28:03;;;;;;;22.77;8.30;;;;;;;;;;4993123;28;20054;-68
2021/12/31 14:30:30;;;;;;;18.38;6.95;;;;;;;;;;4995947;28;20026;-68
2021/12/31 14:32:58;;;;;;;26.00;6.93;;;;;;;;;;4999450;28;20084;-68
2021/12/31 14:35:29;;;;;;;19.15;7.05;;;;;;;;;;4976505;28;20026;-68
2021/12/31 14:37:56;;;;;;;28.73;7.63;;;;;;;;;;5003373;28;20058;-68
2021/12/31 14:40:23;;;;;;;18.83;5.90;;;;;;;;;;5000610;28;20496;-68
2021/12/31 14:42:49;;;;;;;19.27;6.38;;;;;;;;;;4998111;28;20116;-68